Inicio METAR Ruta Wind Satelite

Informe Meteorológico

Fecha: 2021/09/21 15:39:46 Local
2021.09.21 20:39 UTC


Operación:
SKMR 212000Z 00000KT 9999 FEW017 SCT100 32/25 Q1007 RMK A2975 =